sensor_id;sensor_type;location;lat;lon;timestamp;temperature;humidity
46676;DHT22;32412;51.478;5.694;2023-05-07T00:02:01;14.40;99.90
46676;DHT22;32412;51.478;5.694;2023-05-07T00:04:30;14.40;99.90
46676;DHT22;32412;51.478;5.694;2023-05-07T00:07:13;14.40;99.90
46676;DHT22;32412;51.478;5.694;2023-05-07T00:09:44;14.40;99.90
46676;DHT22;32412;51.478;5.694;2023-05-07T00:12:24;14.40;99.90
46676;DHT22;32412;51.478;5.694;2023-05-07T00:15:08;14.40;99.90
46676;DHT22;32412;51.478;5.694;2023-05-07T00:17:37;14.40;99.90
46676;DHT22;32412;51.478;5.694;2023-05-07T00:20:05;14.50;99.90
46676;DHT22;32412;51.478;5.694;2023-05-07T00:22:34;14.50;99.90
46676;DHT22;32412;51.478;5.694;2023-05-07T00:31:19;14.50;99.90
46676;DHT22;32412;51.478;5.694;2023-05-07T00:37:19;14.50;99.90
46676;DHT22;32412;51.478;5.694;2023-05-07T00:39:45;14.40;99.90
46676;DHT22;32412;51.478;5.694;2023-05-07T00:42:11;14.40;99.90
46676;DHT22;32412;51.478;5.694;2023-05-07T00:44:37;14.40;99.90
46676;DHT22;32412;51.478;5.694;2023-05-07T00:47:12;14.30;99.90
46676;DHT22;32412;51.478;5.694;2023-05-07T00:49:48;14.30;99.90
46676;DHT22;32412;51.478;5.694;2023-05-07T00:52:19;14.30;99.90
46676;DHT22;32412;51.478;5.694;2023-05-07T00:54:51;14.20;99.90
46676;DHT22;32412;51.478;5.694;2023-05-07T01:00:47;14.10;99.90
46676;DHT22;32412;51.478;5.694;2023-05-07T01:03:16;14.10;99.90
46676;DHT22;32412;51.478;5.694;2023-05-07T01:06:02;14.10;99.90
46676;DHT22;32412;51.478;5.694;2023-05-07T01:08:45;14.00;99.90
46676;DHT22;32412;51.478;5.694;2023-05-07T01:11:26;14.00;99.90
46676;DHT22;32412;51.478;5.694;2023-05-07T01:13:55;14.00;99.90
46676;DHT22;32412;51.478;5.694;2023-05-07T01:16:38;14.00;99.90
46676;DHT22;32412;51.478;5.694;2023-05-07T01:19:12;14.00;99.90
46676;DHT22;32412;51.478;5.694;2023-05-07T01:22:05;14.00;99.90
46676;DHT22;32412;51.478;5.694;2023-05-07T01:24:37;14.10;99.90
46676;DHT22;32412;51.478;5.694;2023-05-07T01:27:19;14.10;99.90
46676;DHT22;32412;51.478;5.694;2023-05-07T01:29:52;14.10;99.90
46676;DHT22;32412;51.478;5.694;2023-05-07T01:33:12;14.20;99.90
46676;DHT22;32412;51.478;5.694;2023-05-07T01:35:58;14.20;99.90
46676;DHT22;32412;51.478;5.694;2023-05-07T01:38:32;14.10;99.90
46676;DHT22;32412;51.478;5.694;2023-05-07T01:41:06;14.10;99.90
46676;DHT22;32412;51.478;5.694;2023-05-07T01:43:55;14.10;99.90
46676;DHT22;32412;51.478;5.694;2023-05-07T01:46:34;14.10;99.90
46676;DHT22;32412;51.478;5.694;2023-05-07T01:52:27;14.10;99.90
46676;DHT22;32412;51.478;5.694;2023-05-07T01:55:01;14.10;99.90
46676;DHT22;32412;51.478;5.694;2023-05-07T01:57:32;14.10;99.90
46676;DHT22;32412;51.478;5.694;2023-05-07T02:00:07;14.00;99.90
46676;DHT22;32412;51.478;5.694;2023-05-07T02:02:37;14.00;99.90
46676;DHT22;32412;51.478;5.694;2023-05-07T02:05:09;14.10;99.90
46676;DHT22;32412;51.478;5.694;2023-05-07T02:07:40;14.00;99.90
46676;DHT22;32412;51.478;5.694;2023-05-07T02:10:08;14.00;99.90
46676;DHT22;32412;51.478;5.694;2023-05-07T02:12:36;14.00;99.90
46676;DHT22;32412;51.478;5.694;2023-05-07T02:18:06;14.00;99.90
46676;DHT22;32412;51.478;5.694;2023-05-07T02:20:35;14.00;99.90
46676;DHT22;32412;51.478;5.694;2023-05-07T02:23:11;14.00;99.90
46676;DHT22;32412;51.478;5.694;2023-05-07T02:25:48;14.00;99.90
46676;DHT22;32412;51.478;5.694;2023-05-07T02:28:13;14.00;99.90
46676;DHT22;32412;51.478;5.694;2023-05-07T02:30:54;14.00;99.90
46676;DHT22;32412;51.478;5.694;2023-05-07T02:33:23;14.00;99.90
46676;DHT22;32412;51.478;5.694;2023-05-07T02:35:52;13.90;99.90
46676;DHT22;32412;51.478;5.694;2023-05-07T02:38:21;14.00;99.90
46676;DHT22;32412;51.478;5.694;2023-05-07T02:40:47;14.00;99.90
46676;DHT22;32412;51.478;5.694;2023-05-07T02:43:15;14.00;99.90
46676;DHT22;32412;51.478;5.694;2023-05-07T02:46:02;14.00;99.90
46676;DHT22;32412;51.478;5.694;2023-05-07T02:48:33;14.00;99.90
46676;DHT22;32412;51.478;5.694;2023-05-07T02:51:08;13.90;99.90
46676;DHT22;32412;51.478;5.694;2023-05-07T02:53:42;13.90;99.90
46676;DHT22;32412;51.478;5.694;2023-05-07T02:56:22;13.90;99.90
46676;DHT22;32412;51.478;5.694;2023-05-07T02:58:51;13.90;99.90
46676;DHT22;32412;51.478;5.694;2023-05-07T03:01:19;13.90;99.90
46676;DHT22;32412;51.478;5.694;2023-05-07T03:03:48;13.90;99.90
46676;DHT22;32412;51.478;5.694;2023-05-07T03:06:15;13.90;99.90
46676;DHT22;32412;51.478;5.694;2023-05-07T03:08:44;13.90;99.90
46676;DHT22;32412;51.478;5.694;2023-05-07T03:11:15;13.90;99.90
46676;DHT22;32412;51.478;5.694;2023-05-07T03:13:43;13.90;99.90
46676;DHT22;32412;51.478;5.694;2023-05-07T03:16:15;13.90;99.90
46676;DHT22;32412;51.478;5.694;2023-05-07T03:18:52;13.90;99.90
46676;DHT22;32412;51.478;5.694;2023-05-07T03:21:20;13.90;99.90
46676;DHT22;32412;51.478;5.694;2023-05-07T03:23:46;13.90;99.90
46676;DHT22;32412;51.478;5.694;2023-05-07T03:26:12;13.90;99.90
46676;DHT22;32412;51.478;5.694;2023-05-07T03:28:40;14.00;99.90
46676;DHT22;32412;51.478;5.694;2023-05-07T03:31:13;14.00;99.90
46676;DHT22;32412;51.478;5.694;2023-05-07T03:33:56;14.00;99.90
46676;DHT22;32412;51.478;5.694;2023-05-07T03:36:27;13.90;99.90
46676;DHT22;32412;51.478;5.694;2023-05-07T03:39:19;13.90;99.90
46676;DHT22;32412;51.478;5.694;2023-05-07T03:41:50;13.90;99.90
46676;DHT22;32412;51.478;5.694;2023-05-07T03:44:24;13.90;99.90
46676;DHT22;32412;51.478;5.694;2023-05-07T03:46:52;13.90;99.90
46676;DHT22;32412;51.478;5.694;2023-05-07T03:49:17;13.80;99.90
46676;DHT22;32412;51.478;5.694;2023-05-07T03:51:43;13.80;99.90
46676;DHT22;32412;51.478;5.694;2023-05-07T03:54:14;13.80;99.90
46676;DHT22;32412;51.478;5.694;2023-05-07T03:56:51;13.80;99.90
46676;DHT22;32412;51.478;5.694;2023-05-07T03:59:25;13.80;99.90
46676;DHT22;32412;51.478;5.694;2023-05-07T04:01:53;13.80;99.90
46676;DHT22;32412;51.478;5.694;2023-05-07T04:04:21;13.80;99.90
46676;DHT22;32412;51.478;5.694;2023-05-07T04:06:51;13.80;99.90
46676;DHT22;32412;51.478;5.694;2023-05-07T04:09:28;13.90;99.90
46676;DHT22;32412;51.478;5.694;2023-05-07T04:11:58;13.90;99.90
46676;DHT22;32412;51.478;5.694;2023-05-07T04:14:31;13.90;99.90
46676;DHT22;32412;51.478;5.694;2023-05-07T04:17:00;13.90;99.90
46676;DHT22;32412;51.478;5.694;2023-05-07T04:19:29;13.90;99.90
46676;DHT22;32412;51.478;5.694;2023-05-07T04:21:57;13.90;99.90
46676;DHT22;32412;51.478;5.694;2023-05-07T04:24:32;14.00;99.90
46676;DHT22;32412;51.478;5.694;2023-05-07T04:27:00;14.00;99.90
46676;DHT22;32412;51.478;5.694;2023-05-07T04:29:30;14.00;99.90
46676;DHT22;32412;51.478;5.694;2023-05-07T04:32:10;14.10;99.90
46676;DHT22;32412;51.478;5.694;2023-05-07T04:34:41;14.10;99.90
46676;DHT22;32412;51.478;5.694;2023-05-07T04:37:09;14.10;99.90
46676;DHT22;32412;51.478;5.694;2023-05-07T04:39:37;14.20;99.90
46676;DHT22;32412;51.478;5.694;2023-05-07T04:42:06;14.10;99.90
46676;DHT22;32412;51.478;5.694;2023-05-07T04:44:37;14.20;99.90
46676;DHT22;32412;51.478;5.694;2023-05-07T04:47:19;14.20;99.90
46676;DHT22;32412;51.478;5.694;2023-05-07T04:49:53;14.20;99.90
46676;DHT22;32412;51.478;5.694;2023-05-07T04:52:27;14.30;99.90
46676;DHT22;32412;51.478;5.694;2023-05-07T04:55:06;14.30;99.90
46676;DHT22;32412;51.478;5.694;2023-05-07T04:57:35;14.40;99.90
46676;DHT22;32412;51.478;5.694;2023-05-07T05:00:11;14.40;99.90
46676;DHT22;32412;51.478;5.694;2023-05-07T05:02:40;14.50;99.90
46676;DHT22;32412;51.478;5.694;2023-05-07T05:05:07;14.50;99.90
46676;DHT22;32412;51.478;5.694;2023-05-07T05:07:33;14.50;99.90
46676;DHT22;32412;51.478;5.694;2023-05-07T05:10:01;14.60;99.90
46676;DHT22;32412;51.478;5.694;2023-05-07T05:12:36;14.70;99.90
46676;DHT22;32412;51.478;5.694;2023-05-07T05:15:05;14.70;99.90
46676;DHT22;32412;51.478;5.694;2023-05-07T05:17:31;14.70;99.90
46676;DHT22;32412;51.478;5.694;2023-05-07T05:19:57;14.70;99.90
46676;DHT22;32412;51.478;5.694;2023-05-07T05:22:22;14.70;99.90
46676;DHT22;32412;51.478;5.694;2023-05-07T05:25:00;14.70;99.90
46676;DHT22;32412;51.478;5.694;2023-05-07T05:27:26;14.60;99.90
46676;DHT22;32412;51.478;5.694;2023-05-07T05:29:55;14.70;99.90
46676;DHT22;32412;51.478;5.694;2023-05-07T05:32:23;14.70;99.90
46676;DHT22;32412;51.478;5.694;2023-05-07T05:34:52;14.80;99.90
46676;DHT22;32412;51.478;5.694;2023-05-07T05:37:25;14.80;99.90
46676;DHT22;32412;51.478;5.694;2023-05-07T05:39:51;14.80;99.90
46676;DHT22;32412;51.478;5.694;2023-05-07T05:42:28;14.90;99.90
46676;DHT22;32412;51.478;5.694;2023-05-07T05:44:53;15.00;99.90
46676;DHT22;32412;51.478;5.694;2023-05-07T05:47:19;15.10;99.90
46676;DHT22;32412;51.478;5.694;2023-05-07T05:49:56;15.10;99.90
46676;DHT22;32412;51.478;5.694;2023-05-07T05:52:44;15.20;99.90
46676;DHT22;32412;51.478;5.694;2023-05-07T05:55:10;15.20;99.90
46676;DHT22;32412;51.478;5.694;2023-05-07T05:57:45;15.30;99.90
46676;DHT22;32412;51.478;5.694;2023-05-07T06:00:14;15.50;99.90
46676;DHT22;32412;51.478;5.694;2023-05-07T06:02:40;15.40;99.90
46676;DHT22;32412;51.478;5.694;2023-05-07T06:05:06;15.40;99.90
46676;DHT22;32412;51.478;5.694;2023-05-07T06:07:32;15.40;99.90
46676;DHT22;32412;51.478;5.694;2023-05-07T06:09:58;15.50;99.90
46676;DHT22;32412;51.478;5.694;2023-05-07T06:12:27;15.60;99.90
46676;DHT22;32412;51.478;5.694;2023-05-07T06:14:56;15.60;99.90
46676;DHT22;32412;51.478;5.694;2023-05-07T06:17:36;15.70;99.90
46676;DHT22;32412;51.478;5.694;2023-05-07T06:20:05;15.80;99.90
46676;DHT22;32412;51.478;5.694;2023-05-07T06:22:31;15.90;99.90
46676;DHT22;32412;51.478;5.694;2023-05-07T06:24:57;16.00;99.90
46676;DHT22;32412;51.478;5.694;2023-05-07T06:27:39;16.00;99.90
46676;DHT22;32412;51.478;5.694;2023-05-07T06:30:16;16.10;99.90
46676;DHT22;32412;51.478;5.694;2023-05-07T06:32:45;16.30;99.90
46676;DHT22;32412;51.478;5.694;2023-05-07T06:35:16;16.40;99.90
46676;DHT22;32412;51.478;5.694;2023-05-07T06:38:14;16.60;99.90
46676;DHT22;32412;51.478;5.694;2023-05-07T06:40:53;16.70;99.90
46676;DHT22;32412;51.478;5.694;2023-05-07T06:43:29;16.80;99.90
46676;DHT22;32412;51.478;5.694;2023-05-07T06:46:01;16.90;99.90
46676;DHT22;32412;51.478;5.694;2023-05-07T06:48:29;16.90;99.90
46676;DHT22;32412;51.478;5.694;2023-05-07T06:51:05;17.00;99.90
46676;DHT22;32412;51.478;5.694;2023-05-07T06:53:31;17.10;99.90
46676;DHT22;32412;51.478;5.694;2023-05-07T06:56:02;17.20;99.90
46676;DHT22;32412;51.478;5.694;2023-05-07T06:58:27;17.20;99.90
46676;DHT22;32412;51.478;5.694;2023-05-07T07:00:53;17.20;99.90
46676;DHT22;32412;51.478;5.694;2023-05-07T07:03:22;17.20;99.90
46676;DHT22;32412;51.478;5.694;2023-05-07T07:05:50;17.20;99.90
46676;DHT22;32412;51.478;5.694;2023-05-07T07:08:16;17.20;99.90
46676;DHT22;32412;51.478;5.694;2023-05-07T07:10:43;17.40;99.90
46676;DHT22;32412;51.478;5.694;2023-05-07T07:13:12;17.30;99.90
46676;DHT22;32412;51.478;5.694;2023-05-07T07:15:40;17.50;99.90
46676;DHT22;32412;51.478;5.694;2023-05-07T07:18:06;17.40;99.90
46676;DHT22;32412;51.478;5.694;2023-05-07T07:20:31;17.40;99.90
46676;DHT22;32412;51.478;5.694;2023-05-07T07:22:57;17.40;99.90
46676;DHT22;32412;51.478;5.694;2023-05-07T07:25:23;17.60;99.90
46676;DHT22;32412;51.478;5.694;2023-05-07T07:27:49;17.70;99.90
46676;DHT22;32412;51.478;5.694;2023-05-07T07:30:15;17.70;99.90
46676;DHT22;32412;51.478;5.694;2023-05-07T07:32:41;17.80;99.90
46676;DHT22;32412;51.478;5.694;2023-05-07T07:35:07;17.80;99.90
46676;DHT22;32412;51.478;5.694;2023-05-07T07:37:32;17.80;99.90
46676;DHT22;32412;51.478;5.694;2023-05-07T07:39:58;17.80;99.90
46676;DHT22;32412;51.478;5.694;2023-05-07T07:42:24;17.70;99.90
46676;DHT22;32412;51.478;5.694;2023-05-07T07:44:49;17.70;99.90
46676;DHT22;32412;51.478;5.694;2023-05-07T07:47:15;17.60;99.90
46676;DHT22;32412;51.478;5.694;2023-05-07T07:49:41;17.70;99.90
46676;DHT22;32412;51.478;5.694;2023-05-07T07:52:06;17.60;99.90
46676;DHT22;32412;51.478;5.694;2023-05-07T07:54:32;17.70;99.90
46676;DHT22;32412;51.478;5.694;2023-05-07T07:56:58;17.80;99.90
46676;DHT22;32412;51.478;5.694;2023-05-07T07:59:24;17.90;99.90
46676;DHT22;32412;51.478;5.694;2023-05-07T08:01:49;17.90;99.90
46676;DHT22;32412;51.478;5.694;2023-05-07T08:04:17;18.10;99.90
46676;DHT22;32412;51.478;5.694;2023-05-07T08:06:42;18.20;99.90
46676;DHT22;32412;51.478;5.694;2023-05-07T08:09:08;18.30;99.90
46676;DHT22;32412;51.478;5.694;2023-05-07T08:11:34;18.40;99.90
46676;DHT22;32412;51.478;5.694;2023-05-07T08:14:00;18.60;99.90
46676;DHT22;32412;51.478;5.694;2023-05-07T08:16:25;18.80;99.90
46676;DHT22;32412;51.478;5.694;2023-05-07T08:18:51;18.90;99.90
46676;DHT22;32412;51.478;5.694;2023-05-07T08:21:17;19.00;99.90
46676;DHT22;32412;51.478;5.694;2023-05-07T08:23:42;19.20;99.90
46676;DHT22;32412;51.478;5.694;2023-05-07T08:26:08;19.50;99.90
46676;DHT22;32412;51.478;5.694;2023-05-07T08:28:34;19.60;99.90
46676;DHT22;32412;51.478;5.694;2023-05-07T08:31:00;19.50;99.90
46676;DHT22;32412;51.478;5.694;2023-05-07T08:33:26;19.50;99.90
46676;DHT22;32412;51.478;5.694;2023-05-07T08:35:52;19.40;99.90
46676;DHT22;32412;51.478;5.694;2023-05-07T08:38:17;19.40;99.90
46676;DHT22;32412;51.478;5.694;2023-05-07T08:40:43;19.60;99.90
46676;DHT22;32412;51.478;5.694;2023-05-07T08:43:12;19.70;99.90
46676;DHT22;32412;51.478;5.694;2023-05-07T08:45:39;19.70;99.90
46676;DHT22;32412;51.478;5.694;2023-05-07T08:48:09;19.70;99.90
46676;DHT22;32412;51.478;5.694;2023-05-07T08:50:36;19.80;99.90
46676;DHT22;32412;51.478;5.694;2023-05-07T08:53:03;19.70;99.90
46676;DHT22;32412;51.478;5.694;2023-05-07T08:55:29;19.90;99.90
46676;DHT22;32412;51.478;5.694;2023-05-07T08:57:55;20.00;99.90
46676;DHT22;32412;51.478;5.694;2023-05-07T09:00:21;20.30;99.90
46676;DHT22;32412;51.478;5.694;2023-05-07T09:02:47;20.50;99.90
46676;DHT22;32412;51.478;5.694;2023-05-07T09:05:13;20.70;99.90
46676;DHT22;32412;51.478;5.694;2023-05-07T09:07:39;20.80;99.90
46676;DHT22;32412;51.478;5.694;2023-05-07T09:10:05;20.90;99.90
46676;DHT22;32412;51.478;5.694;2023-05-07T09:12:31;21.00;99.90
46676;DHT22;32412;51.478;5.694;2023-05-07T09:14:58;21.00;99.90
46676;DHT22;32412;51.478;5.694;2023-05-07T09:17:23;21.00;99.90
46676;DHT22;32412;51.478;5.694;2023-05-07T09:19:49;21.10;99.90
46676;DHT22;32412;51.478;5.694;2023-05-07T09:22:15;21.00;99.90
46676;DHT22;32412;51.478;5.694;2023-05-07T09:24:50;21.10;99.90
46676;DHT22;32412;51.478;5.694;2023-05-07T09:27:17;21.10;99.90
46676;DHT22;32412;51.478;5.694;2023-05-07T09:29:43;21.10;99.90
46676;DHT22;32412;51.478;5.694;2023-05-07T09:32:09;21.10;99.90
46676;DHT22;32412;51.478;5.694;2023-05-07T09:34:35;21.10;99.90
46676;DHT22;32412;51.478;5.694;2023-05-07T09:37:02;21.10;99.90
46676;DHT22;32412;51.478;5.694;2023-05-07T09:39:42;20.70;99.90
46676;DHT22;32412;51.478;5.694;2023-05-07T09:42:07;20.80;99.90
46676;DHT22;32412;51.478;5.694;2023-05-07T09:44:34;20.60;99.90
46676;DHT22;32412;51.478;5.694;2023-05-07T09:47:00;20.80;99.90
46676;DHT22;32412;51.478;5.694;2023-05-07T09:49:47;20.90;99.90
46676;DHT22;32412;51.478;5.694;2023-05-07T09:52:13;21.10;99.90
46676;DHT22;32412;51.478;5.694;2023-05-07T09:54:40;21.40;99.90
46676;DHT22;32412;51.478;5.694;2023-05-07T09:57:10;21.60;99.90
46676;DHT22;32412;51.478;5.694;2023-05-07T09:59:38;21.80;99.90
46676;DHT22;32412;51.478;5.694;2023-05-07T10:02:04;21.90;99.90
46676;DHT22;32412;51.478;5.694;2023-05-07T10:04:31;22.20;99.90
46676;DHT22;32412;51.478;5.694;2023-05-07T10:06:58;22.30;99.90
46676;DHT22;32412;51.478;5.694;2023-05-07T10:09:25;22.00;99.90
46676;DHT22;32412;51.478;5.694;2023-05-07T10:11:52;22.00;99.90
46676;DHT22;32412;51.478;5.694;2023-05-07T10:14:21;22.10;99.90
46676;DHT22;32412;51.478;5.694;2023-05-07T10:16:48;22.10;99.90
46676;DHT22;32412;51.478;5.694;2023-05-07T10:19:14;22.50;99.90
46676;DHT22;32412;51.478;5.694;2023-05-07T10:21:54;22.80;99.90
46676;DHT22;32412;51.478;5.694;2023-05-07T10:24:26;22.80;99.90
46676;DHT22;32412;51.478;5.694;2023-05-07T10:26:53;22.60;99.90
46676;DHT22;32412;51.478;5.694;2023-05-07T10:34:55;23.50;99.90
46676;DHT22;32412;51.478;5.694;2023-05-07T10:37:25;23.70;99.90
46676;DHT22;32412;51.478;5.694;2023-05-07T10:39:51;23.90;99.90
46676;DHT22;32412;51.478;5.694;2023-05-07T10:42:17;23.90;99.90
46676;DHT22;32412;51.478;5.694;2023-05-07T10:44:43;24.10;99.90
46676;DHT22;32412;51.478;5.694;2023-05-07T10:47:09;24.50;99.90
46676;DHT22;32412;51.478;5.694;2023-05-07T10:54:45;24.80;99.90
46676;DHT22;32412;51.478;5.694;2023-05-07T10:57:36;25.00;99.90
46676;DHT22;32412;51.478;5.694;2023-05-07T11:00:03;24.80;99.90
46676;DHT22;32412;51.478;5.694;2023-05-07T11:05:28;24.60;99.90
46676;DHT22;32412;51.478;5.694;2023-05-07T11:08:04;24.40;99.90
46676;DHT22;32412;51.478;5.694;2023-05-07T11:10:50;25.00;99.90
46676;DHT22;32412;51.478;5.694;2023-05-07T11:13:16;24.80;99.90
46676;DHT22;32412;51.478;5.694;2023-05-07T11:15:45;24.70;99.90
46676;DHT22;32412;51.478;5.694;2023-05-07T11:18:12;24.70;99.90
46676;DHT22;32412;51.478;5.694;2023-05-07T11:20:51;24.60;99.90
46676;DHT22;32412;51.478;5.694;2023-05-07T11:26:05;24.20;99.90
46676;DHT22;32412;51.478;5.694;2023-05-07T11:28:36;24.00;99.90
46676;DHT22;32412;51.478;5.694;2023-05-07T11:31:02;23.90;99.90
46676;DHT22;32412;51.478;5.694;2023-05-07T11:33:32;23.50;99.90
46676;DHT22;32412;51.478;5.694;2023-05-07T11:35:59;23.30;99.90
46676;DHT22;32412;51.478;5.694;2023-05-07T11:38:25;22.90;99.90
46676;DHT22;32412;51.478;5.694;2023-05-07T11:40:58;22.80;99.90
46676;DHT22;32412;51.478;5.694;2023-05-07T11:43:26;22.50;99.90
46676;DHT22;32412;51.478;5.694;2023-05-07T11:45:52;22.40;99.90
46676;DHT22;32412;51.478;5.694;2023-05-07T11:48:18;22.40;99.90
46676;DHT22;32412;51.478;5.694;2023-05-07T11:50:59;22.40;99.90
46676;DHT22;32412;51.478;5.694;2023-05-07T11:53:27;22.40;99.90
46676;DHT22;32412;51.478;5.694;2023-05-07T11:55:54;22.50;99.90
46676;DHT22;32412;51.478;5.694;2023-05-07T11:58:22;22.50;99.90
46676;DHT22;32412;51.478;5.694;2023-05-07T12:00:52;22.50;99.90
46676;DHT22;32412;51.478;5.694;2023-05-07T12:03:18;22.50;99.90
46676;DHT22;32412;51.478;5.694;2023-05-07T12:05:47;22.40;99.90
46676;DHT22;32412;51.478;5.694;2023-05-07T12:08:17;22.30;99.90
46676;DHT22;32412;51.478;5.694;2023-05-07T12:10:44;22.40;99.90
46676;DHT22;32412;51.478;5.694;2023-05-07T12:13:25;22.40;99.90
46676;DHT22;32412;51.478;5.694;2023-05-07T12:15:55;22.60;99.90
46676;DHT22;32412;51.478;5.694;2023-05-07T12:18:22;22.70;99.90
46676;DHT22;32412;51.478;5.694;2023-05-07T12:20:48;22.70;99.90
46676;DHT22;32412;51.478;5.694;2023-05-07T12:23:14;22.90;99.90
46676;DHT22;32412;51.478;5.694;2023-05-07T12:25:41;22.60;99.90
46676;DHT22;32412;51.478;5.694;2023-05-07T12:28:18;22.60;99.90
46676;DHT22;32412;51.478;5.694;2023-05-07T12:30:46;22.70;99.90
46676;DHT22;32412;51.478;5.694;2023-05-07T12:33:14;22.70;99.90
46676;DHT22;32412;51.478;5.694;2023-05-07T12:35:42;22.50;99.90
46676;DHT22;32412;51.478;5.694;2023-05-07T12:38:15;22.30;99.90
46676;DHT22;32412;51.478;5.694;2023-05-07T12:40:44;22.30;99.90
46676;DHT22;32412;51.478;5.694;2023-05-07T12:43:21;22.20;99.90
46676;DHT22;32412;51.478;5.694;2023-05-07T12:45:50;22.20;99.90
46676;DHT22;32412;51.478;5.694;2023-05-07T12:48:16;22.00;99.90
46676;DHT22;32412;51.478;5.694;2023-05-07T12:50:41;21.70;99.90
46676;DHT22;32412;51.478;5.694;2023-05-07T12:53:10;21.60;99.90
46676;DHT22;32412;51.478;5.694;2023-05-07T12:55:50;21.60;99.90
46676;DHT22;32412;51.478;5.694;2023-05-07T12:58:22;21.50;99.90
46676;DHT22;32412;51.478;5.694;2023-05-07T13:00:50;21.40;99.90
46676;DHT22;32412;51.478;5.694;2023-05-07T13:03:35;21.30;99.90
46676;DHT22;32412;51.478;5.694;2023-05-07T13:06:06;21.20;99.90
46676;DHT22;32412;51.478;5.694;2023-05-07T13:08:34;20.80;99.90
46676;DHT22;32412;51.478;5.694;2023-05-07T13:11:02;20.00;99.90
46676;DHT22;32412;51.478;5.694;2023-05-07T13:13:34;19.20;99.90
46676;DHT22;32412;51.478;5.694;2023-05-07T13:16:01;18.80;99.90
46676;DHT22;32412;51.478;5.694;2023-05-07T13:18:29;18.60;99.90
46676;DHT22;32412;51.478;5.694;2023-05-07T13:20:59;18.30;99.90
46676;DHT22;32412;51.478;5.694;2023-05-07T13:23:26;18.00;99.90
46676;DHT22;32412;51.478;5.694;2023-05-07T13:25:52;17.60;99.90
46676;DHT22;32412;51.478;5.694;2023-05-07T13:28:21;17.20;99.90
46676;DHT22;32412;51.478;5.694;2023-05-07T13:30:47;16.70;99.90
46676;DHT22;32412;51.478;5.694;2023-05-07T13:33:13;16.20;99.90
46676;DHT22;32412;51.478;5.694;2023-05-07T13:35:39;16.00;99.90
46676;DHT22;32412;51.478;5.694;2023-05-07T13:38:05;15.90;99.90
46676;DHT22;32412;51.478;5.694;2023-05-07T13:40:31;15.80;99.90
46676;DHT22;32412;51.478;5.694;2023-05-07T13:43:00;15.70;99.90
46676;DHT22;32412;51.478;5.694;2023-05-07T13:45:28;15.70;99.90
46676;DHT22;32412;51.478;5.694;2023-05-07T13:47:55;15.70;99.90
46676;DHT22;32412;51.478;5.694;2023-05-07T13:50:21;15.60;99.90
46676;DHT22;32412;51.478;5.694;2023-05-07T13:52:47;15.60;99.90
46676;DHT22;32412;51.478;5.694;2023-05-07T13:55:19;15.60;99.90
46676;DHT22;32412;51.478;5.694;2023-05-07T13:57:44;15.60;99.90
46676;DHT22;32412;51.478;5.694;2023-05-07T14:00:11;15.60;99.90
46676;DHT22;32412;51.478;5.694;2023-05-07T14:02:37;15.60;99.90
46676;DHT22;32412;51.478;5.694;2023-05-07T14:05:03;15.70;99.90
46676;DHT22;32412;51.478;5.694;2023-05-07T14:07:29;15.70;99.90
46676;DHT22;32412;51.478;5.694;2023-05-07T14:09:55;15.80;99.90
46676;DHT22;32412;51.478;5.694;2023-05-07T14:12:20;15.80;99.90
46676;DHT22;32412;51.478;5.694;2023-05-07T14:14:46;15.90;99.90
46676;DHT22;32412;51.478;5.694;2023-05-07T14:17:12;15.90;99.90
46676;DHT22;32412;51.478;5.694;2023-05-07T14:19:38;15.90;99.90
46676;DHT22;32412;51.478;5.694;2023-05-07T14:22:03;15.90;99.90
46676;DHT22;32412;51.478;5.694;2023-05-07T14:24:29;15.80;99.90
46676;DHT22;32412;51.478;5.694;2023-05-07T14:26:55;15.80;99.90
46676;DHT22;32412;51.478;5.694;2023-05-07T14:29:21;15.80;99.90
46676;DHT22;32412;51.478;5.694;2023-05-07T14:31:48;15.80;99.90
46676;DHT22;32412;51.478;5.694;2023-05-07T14:34:13;15.70;99.90
46676;DHT22;32412;51.478;5.694;2023-05-07T14:36:39;15.80;99.90
46676;DHT22;32412;51.478;5.694;2023-05-07T14:39:04;15.80;99.90
46676;DHT22;32412;51.478;5.694;2023-05-07T14:41:30;15.80;99.90
46676;DHT22;32412;51.478;5.694;2023-05-07T14:43:57;15.80;99.90
46676;DHT22;32412;51.478;5.694;2023-05-07T14:46:27;15.90;99.90
46676;DHT22;32412;51.478;5.694;2023-05-07T14:48:53;16.00;99.90
46676;DHT22;32412;51.478;5.694;2023-05-07T14:51:18;16.20;99.90
46676;DHT22;32412;51.478;5.694;2023-05-07T14:53:44;16.30;99.90
46676;DHT22;32412;51.478;5.694;2023-05-07T14:56:10;16.30;99.90
46676;DHT22;32412;51.478;5.694;2023-05-07T14:58:36;16.40;99.90
46676;DHT22;32412;51.478;5.694;2023-05-07T15:01:02;16.50;99.90
46676;DHT22;32412;51.478;5.694;2023-05-07T15:03:28;16.70;99.90
46676;DHT22;32412;51.478;5.694;2023-05-07T15:05:54;16.80;99.90
46676;DHT22;32412;51.478;5.694;2023-05-07T15:08:20;16.90;99.90
46676;DHT22;32412;51.478;5.694;2023-05-07T15:10:46;17.00;99.90
46676;DHT22;32412;51.478;5.694;2023-05-07T15:13:12;17.10;99.90
46676;DHT22;32412;51.478;5.694;2023-05-07T15:15:41;16.90;99.90
46676;DHT22;32412;51.478;5.694;2023-05-07T15:18:07;16.90;99.90
46676;DHT22;32412;51.478;5.694;2023-05-07T15:20:33;16.90;99.90
46676;DHT22;32412;51.478;5.694;2023-05-07T15:22:58;17.00;99.90
46676;DHT22;32412;51.478;5.694;2023-05-07T15:25:24;17.00;99.90
46676;DHT22;32412;51.478;5.694;2023-05-07T15:27:50;17.10;99.90
46676;DHT22;32412;51.478;5.694;2023-05-07T15:30:16;17.10;99.90
46676;DHT22;32412;51.478;5.694;2023-05-07T15:32:42;17.00;99.90
46676;DHT22;32412;51.478;5.694;2023-05-07T15:35:09;17.00;99.90
46676;DHT22;32412;51.478;5.694;2023-05-07T15:37:35;16.90;99.90
46676;DHT22;32412;51.478;5.694;2023-05-07T15:40:00;17.00;99.90
46676;DHT22;32412;51.478;5.694;2023-05-07T15:42:30;17.10;99.90
46676;DHT22;32412;51.478;5.694;2023-05-07T15:44:56;17.10;99.90
46676;DHT22;32412;51.478;5.694;2023-05-07T15:47:21;17.50;99.90
46676;DHT22;32412;51.478;5.694;2023-05-07T15:49:47;17.60;99.90
46676;DHT22;32412;51.478;5.694;2023-05-07T15:52:12;17.70;99.90
46676;DHT22;32412;51.478;5.694;2023-05-07T15:54:41;17.80;99.90
46676;DHT22;32412;51.478;5.694;2023-05-07T15:57:07;18.00;99.90
46676;DHT22;32412;51.478;5.694;2023-05-07T15:59:33;17.90;99.90
46676;DHT22;32412;51.478;5.694;2023-05-07T16:02:00;17.80;99.90
46676;DHT22;32412;51.478;5.694;2023-05-07T16:04:26;17.70;99.90
46676;DHT22;32412;51.478;5.694;2023-05-07T16:06:53;17.70;99.90
46676;DHT22;32412;51.478;5.694;2023-05-07T16:09:18;17.70;99.90
46676;DHT22;32412;51.478;5.694;2023-05-07T16:11:44;17.80;99.90
46676;DHT22;32412;51.478;5.694;2023-05-07T16:14:10;18.00;99.90
46676;DHT22;32412;51.478;5.694;2023-05-07T16:16:36;18.00;99.90
46676;DHT22;32412;51.478;5.694;2023-05-07T16:19:03;18.00;99.90
46676;DHT22;32412;51.478;5.694;2023-05-07T16:21:30;18.10;99.90